createdAt,value
2022-12-31T00:01:50.105Z,4.03
2022-12-31T00:04:16.996Z,6.75
2022-12-31T00:06:43.847Z,6.05
2022-12-31T00:09:10.712Z,4.22
2022-12-31T00:11:37.904Z,5.70
2022-12-31T00:14:05.584Z,5.40
2022-12-31T00:16:36.476Z,8.95
2022-12-31T00:21:31.332Z,6.43
2022-12-31T00:23:58.269Z,5.18
2022-12-31T00:26:27.125Z,10.55
2022-12-31T00:28:54.662Z,7.75
2022-12-31T00:31:23.174Z,5.30
2022-12-31T00:33:50.040Z,6.20
2022-12-31T00:36:21.727Z,6.95
2022-12-31T00:38:50.263Z,6.82
2022-12-31T00:41:17.489Z,4.80
2022-12-31T00:43:44.338Z,5.22
2022-12-31T00:46:13.381Z,3.90
2022-12-31T00:48:40.196Z,4.80
2022-12-31T00:51:08.577Z,4.15
2022-12-31T00:53:35.420Z,7.45
2022-12-31T00:56:13.411Z,9.77
2022-12-31T00:58:40.221Z,4.90
2022-12-31T01:01:10.249Z,5.57
2022-12-31T01:03:37.201Z,7.82
2022-12-31T01:06:04.416Z,5.93
2022-12-31T01:08:31.168Z,4.32
2022-12-31T01:11:16.350Z,5.47
2022-12-31T01:13:43.140Z,6.18
2022-12-31T01:16:11.616Z,3.88
2022-12-31T01:18:38.563Z,6.38
2022-12-31T01:21:06.992Z,6.80
2022-12-31T01:23:33.873Z,6.85
2022-12-31T01:26:01.535Z,5.68
2022-12-31T01:28:28.531Z,6.05
2022-12-31T01:30:55.605Z,17.00
2022-12-31T01:33:22.456Z,3.22
2022-12-31T01:35:49.399Z,4.72
2022-12-31T01:38:16.312Z,5.97
2022-12-31T01:40:43.103Z,9.13
2022-12-31T01:43:17.692Z,13.85
2022-12-31T01:45:49.524Z,14.73
2022-12-31T01:48:20.149Z,19.52
2022-12-31T01:50:47.392Z,17.55
2022-12-31T01:53:14.134Z,13.18
2022-12-31T01:55:50.034Z,18.63
2022-12-31T01:58:26.193Z,18.85
2022-12-31T02:00:53.295Z,9.52
2022-12-31T02:03:21.541Z,14.02
2022-12-31T02:05:56.272Z,11.13
2022-12-31T02:08:23.043Z,9.52
2022-12-31T02:10:49.762Z,11.15
2022-12-31T02:13:16.542Z,7.88
2022-12-31T02:15:43.325Z,8.52
2022-12-31T02:18:35.543Z,7.05
2022-12-31T02:21:31.448Z,5.97
2022-12-31T02:24:01.040Z,6.18
2022-12-31T02:26:46.664Z,6.28
2022-12-31T02:29:31.878Z,4.82
2022-12-31T02:32:03.534Z,6.60
2022-12-31T02:34:36.915Z,9.80
2022-12-31T02:37:04.997Z,5.65
2022-12-31T02:39:31.810Z,7.82
2022-12-31T02:41:59.584Z,4.25
2022-12-31T02:44:33.012Z,5.10
2022-12-31T02:47:09.042Z,6.22
2022-12-31T02:49:57.023Z,8.10
2022-12-31T02:52:35.746Z,3.90
2022-12-31T02:55:33.279Z,4.97
2022-12-31T02:58:13.045Z,6.40
2022-12-31T03:01:04.349Z,5.28
2022-12-31T03:03:31.238Z,5.53
2022-12-31T03:05:58.131Z,6.57
2022-12-31T03:08:25.663Z,4.03
2022-12-31T03:10:52.529Z,2.97
2022-12-31T03:13:19.292Z,5.50
2022-12-31T03:15:45.999Z,4.47
2022-12-31T03:18:17.050Z,6.60
2022-12-31T03:21:07.194Z,7.72
2022-12-31T03:23:35.565Z,6.63
2022-12-31T03:26:02.670Z,7.68
2022-12-31T03:28:30.300Z,4.88
2022-12-31T03:30:59.405Z,4.78
2022-12-31T03:33:26.479Z,4.70
2022-12-31T03:35:53.465Z,8.90
2022-12-31T03:38:20.313Z,6.63
2022-12-31T03:40:51.642Z,7.70
2022-12-31T03:43:19.601Z,4.95
2022-12-31T03:45:53.078Z,4.18
2022-12-31T03:48:21.085Z,4.38
2022-12-31T03:50:47.838Z,5.28
2022-12-31T03:53:14.885Z,6.00
2022-12-31T03:55:41.709Z,6.78
2022-12-31T03:58:08.583Z,8.07
2022-12-31T04:00:35.548Z,5.15
2022-12-31T04:03:02.302Z,3.42
2022-12-31T04:05:29.144Z,8.00
2022-12-31T04:07:56.542Z,5.78
2022-12-31T04:10:23.291Z,6.43
2022-12-31T04:12:50.092Z,8.88
2022-12-31T04:15:18.823Z,2.65
2022-12-31T04:17:45.853Z,6.78
2022-12-31T04:20:12.638Z,5.05
2022-12-31T04:22:39.372Z,6.25
2022-12-31T04:25:11.223Z,5.88
2022-12-31T04:27:41.516Z,3.83
2022-12-31T04:30:08.788Z,7.13
2022-12-31T04:32:35.701Z,8.05
2022-12-31T04:35:02.513Z,5.30
2022-12-31T04:37:29.266Z,9.07
2022-12-31T04:40:00.342Z,6.93
2022-12-31T04:42:30.406Z,4.00
2022-12-31T04:44:57.184Z,5.78
2022-12-31T04:47:24.207Z,4.25
2022-12-31T04:49:51.178Z,6.60
2022-12-31T04:52:18.013Z,4.32
2022-12-31T04:54:44.797Z,8.23
2022-12-31T04:57:11.623Z,7.78
2022-12-31T04:59:38.404Z,31.73
2022-12-31T05:02:05.451Z,9.63
2022-12-31T05:04:32.424Z,11.05
2022-12-31T05:06:59.217Z,5.85
2022-12-31T05:09:27.564Z,6.10
2022-12-31T05:11:54.462Z,9.32
2022-12-31T05:14:21.277Z,6.80
2022-12-31T05:16:48.101Z,8.77
2022-12-31T05:19:15.217Z,9.05
2022-12-31T05:21:42.074Z,7.53
2022-12-31T05:24:09.441Z,8.30
2022-12-31T05:26:36.247Z,7.57
2022-12-31T05:29:02.999Z,8.68
2022-12-31T05:31:29.847Z,6.85
2022-12-31T05:33:56.863Z,5.43
2022-12-31T05:36:23.731Z,6.65
2022-12-31T05:38:50.509Z,4.45
2022-12-31T05:41:17.283Z,7.63
2022-12-31T05:43:44.059Z,7.97
2022-12-31T05:46:10.940Z,4.95
2022-12-31T05:48:37.808Z,7.32
2022-12-31T05:51:04.720Z,9.23
2022-12-31T05:53:31.529Z,6.43
2022-12-31T05:55:58.275Z,8.57
2022-12-31T05:58:25.126Z,11.90
2022-12-31T06:00:52.380Z,6.20
2022-12-31T06:03:19.191Z,3.60
2022-12-31T06:05:46.053Z,5.63
2022-12-31T06:08:12.991Z,7.15
2022-12-31T06:10:39.965Z,5.88
2022-12-31T06:13:06.943Z,6.05
2022-12-31T06:15:36.512Z,6.10
2022-12-31T06:18:03.427Z,6.82
2022-12-31T06:20:30.205Z,9.18
2022-12-31T06:22:56.908Z,6.30
2022-12-31T06:25:23.889Z,12.63
2022-12-31T06:27:50.598Z,9.43
2022-12-31T06:30:17.427Z,8.63
2022-12-31T06:32:44.244Z,9.38
2022-12-31T06:35:11.171Z,3.45
2022-12-31T06:37:37.916Z,12.32
2022-12-31T06:40:05.210Z,6.97
2022-12-31T06:42:31.988Z,6.35
2022-12-31T06:44:59.121Z,13.25
2022-12-31T06:47:26.016Z,11.05
2022-12-31T06:49:53.262Z,17.17
2022-12-31T06:52:20.486Z,9.07
2022-12-31T06:54:47.634Z,707.70
2022-12-31T06:57:14.841Z,163.13
2022-12-31T06:59:41.868Z,36.55
2022-12-31T07:02:27.003Z,44.13
2022-12-31T07:05:21.859Z,31.00
2022-12-31T07:07:50.131Z,33.85
2022-12-31T07:10:47.718Z,32.25
2022-12-31T07:13:20.410Z,27.65
2022-12-31T07:16:25.676Z,32.35
2022-12-31T07:19:12.741Z,39.97
2022-12-31T07:21:40.983Z,36.58
2022-12-31T07:24:09.045Z,35.08
2022-12-31T07:26:56.791Z,77.72
2022-12-31T07:29:26.651Z,59.05
2022-12-31T07:32:11.797Z,55.05
2022-12-31T07:35:03.622Z,47.70
2022-12-31T07:37:42.266Z,53.80
2022-12-31T07:40:27.214Z,51.25
2022-12-31T07:43:18.522Z,51.75
2022-12-31T07:46:07.445Z,48.17
2022-12-31T07:48:34.588Z,37.88
2022-12-31T07:51:01.669Z,34.78
2022-12-31T07:53:28.796Z,27.33
2022-12-31T07:55:57.531Z,31.17
2022-12-31T07:58:55.256Z,45.10
2022-12-31T08:01:42.000Z,27.13
2022-12-31T08:04:28.871Z,29.92
2022-12-31T08:07:03.907Z,39.70
2022-12-31T08:09:46.502Z,41.42
2022-12-31T08:12:14.193Z,35.88
2022-12-31T08:14:45.432Z,33.20
2022-12-31T08:17:17.044Z,29.13
2022-12-31T08:19:44.162Z,30.63
2022-12-31T08:22:14.038Z,36.00
2022-12-31T08:24:47.593Z,25.67
2022-12-31T08:27:48.312Z,27.23
2022-12-31T08:30:20.255Z,37.78
2022-12-31T08:33:07.587Z,28.77
2022-12-31T08:36:12.265Z,31.15
2022-12-31T08:38:58.112Z,33.95
2022-12-31T08:41:29.343Z,38.00
2022-12-31T08:44:27.003Z,26.00
2022-12-31T08:47:03.053Z,27.80
2022-12-31T08:49:32.174Z,30.55
2022-12-31T08:51:59.546Z,22.33
2022-12-31T08:54:26.728Z,28.05
2022-12-31T08:57:02.390Z,25.42
2022-12-31T08:59:35.186Z,31.02
2022-12-31T09:02:07.609Z,33.03
2022-12-31T09:04:59.082Z,28.65
2022-12-31T09:07:33.979Z,26.38
2022-12-31T09:10:18.990Z,28.58
2022-12-31T09:12:57.634Z,40.10
2022-12-31T09:15:33.971Z,19.20
2022-12-31T09:18:01.040Z,37.83
2022-12-31T09:20:42.927Z,26.27
2022-12-31T09:23:11.554Z,25.38
2022-12-31T09:25:43.090Z,25.23
2022-12-31T09:28:29.457Z,17.23
2022-12-31T09:31:09.796Z,11.55
2022-12-31T09:33:46.577Z,25.75
2022-12-31T09:36:36.592Z,23.73
2022-12-31T09:39:40.149Z,22.33
2022-12-31T09:42:43.052Z,15.98
2022-12-31T09:45:25.348Z,20.92
2022-12-31T09:48:25.619Z,26.40
2022-12-31T09:51:07.319Z,19.25
2022-12-31T09:53:49.116Z,151.73
2022-12-31T09:56:39.912Z,22.90
2022-12-31T09:59:13.100Z,15.65
2022-12-31T10:01:51.319Z,31.00
2022-12-31T10:04:44.147Z,29.20
2022-12-31T10:07:23.551Z,24.15
2022-12-31T10:10:05.427Z,17.13
2022-12-31T10:12:59.692Z,19.52
2022-12-31T10:15:35.402Z,15.68
2022-12-31T10:18:11.189Z,21.45
2022-12-31T10:20:46.287Z,18.58
2022-12-31T10:23:34.260Z,13.10
2022-12-31T10:26:31.537Z,10.55
2022-12-31T10:29:25.541Z,12.85
2022-12-31T10:31:58.091Z,11.48
2022-12-31T10:34:43.357Z,15.18
2022-12-31T10:37:24.179Z,14.02
2022-12-31T10:39:56.741Z,11.13
2022-12-31T10:42:30.841Z,5.03
2022-12-31T10:45:30.755Z,8.15
2022-12-31T10:48:35.911Z,2.50
2022-12-31T10:51:11.771Z,4.13
2022-12-31T10:54:09.316Z,7.63
2022-12-31T10:56:51.108Z,3.25
2022-12-31T10:59:55.432Z,4.70
2022-12-31T11:02:34.049Z,3.42
2022-12-31T11:05:43.031Z,5.47
2022-12-31T11:08:30.078Z,4.82
2022-12-31T11:11:20.770Z,5.35
2022-12-31T11:13:56.273Z,8.50
2022-12-31T11:16:34.475Z,7.75
2022-12-31T11:19:25.953Z,7.15
2022-12-31T11:21:55.419Z,5.78
2022-12-31T11:24:47.374Z,3.45
2022-12-31T11:27:36.016Z,4.35
2022-12-31T11:30:23.931Z,5.50
2022-12-31T11:33:15.066Z,3.10
2022-12-31T11:36:00.651Z,4.53
2022-12-31T11:38:33.358Z,6.72
2022-12-31T11:41:01.939Z,3.67
2022-12-31T11:43:39.561Z,3.42
2022-12-31T11:46:30.670Z,6.00
2022-12-31T11:49:31.580Z,6.07
2022-12-31T11:51:58.359Z,5.80
2022-12-31T11:54:40.394Z,4.80
2022-12-31T11:57:27.497Z,9.48
2022-12-31T11:59:59.267Z,6.90
2022-12-31T12:02:32.703Z,6.32
2022-12-31T12:05:06.535Z,6.97
2022-12-31T12:07:37.438Z,5.80
2022-12-31T12:10:14.165Z,2.25
2022-12-31T12:12:41.463Z,2.88
2022-12-31T12:15:09.705Z,3.28
2022-12-31T12:17:36.512Z,7.18
2022-12-31T12:20:16.105Z,9.32
2022-12-31T12:22:53.806Z,4.00
2022-12-31T12:25:22.671Z,12.13
2022-12-31T12:27:49.518Z,7.28
2022-12-31T12:30:26.113Z,5.75
2022-12-31T12:32:56.922Z,4.47
2022-12-31T12:35:31.897Z,3.63
2022-12-31T12:38:13.800Z,6.15
2022-12-31T12:40:40.651Z,9.20
2022-12-31T12:43:21.150Z,6.47
2022-12-31T12:45:52.150Z,8.00
2022-12-31T12:48:32.180Z,6.60
2022-12-31T12:50:58.998Z,8.47
2022-12-31T12:53:39.205Z,5.40
2022-12-31T12:56:08.929Z,7.53
2022-12-31T12:59:09.194Z,8.97
2022-12-31T13:01:56.313Z,5.22
2022-12-31T13:04:55.787Z,13.60
2022-12-31T13:07:32.955Z,15.52
2022-12-31T13:10:28.742Z,26.00
2022-12-31T13:13:26.043Z,22.52
2022-12-31T13:15:52.985Z,22.27
2022-12-31T13:18:41.691Z,24.17
2022-12-31T13:21:24.077Z,26.45
2022-12-31T13:24:02.925Z,18.33
2022-12-31T13:26:48.787Z,25.48
2022-12-31T13:29:19.729Z,20.25
2022-12-31T13:31:47.476Z,20.75
2022-12-31T13:34:18.041Z,32.47
2022-12-31T13:36:45.960Z,26.30
2022-12-31T13:39:19.038Z,14.15
2022-12-31T13:41:52.655Z,19.65
2022-12-31T13:44:44.179Z,22.70
2022-12-31T13:47:46.601Z,13.98
2022-12-31T13:50:16.196Z,18.02
2022-12-31T13:53:09.120Z,14.97
2022-12-31T13:55:41.797Z,27.98
2022-12-31T13:58:37.493Z,18.63
2022-12-31T14:01:28.224Z,24.52
2022-12-31T14:04:11.949Z,23.33
2022-12-31T14:06:50.432Z,24.50
2022-12-31T14:09:23.025Z,24.08
2022-12-31T14:11:55.791Z,23.95
2022-12-31T14:14:40.095Z,28.60
2022-12-31T14:17:33.788Z,35.53
2022-12-31T14:20:12.429Z,31.77
2022-12-31T14:23:00.433Z,31.63
2022-12-31T14:25:29.393Z,71.90
2022-12-31T14:27:56.719Z,37.97
2022-12-31T14:30:25.908Z,47.10
2022-12-31T14:33:09.757Z,35.30
2022-12-31T14:35:48.486Z,40.35
2022-12-31T14:38:33.856Z,32.92
2022-12-31T14:41:12.872Z,16.65
2022-12-31T14:43:42.527Z,24.52
2022-12-31T14:46:39.870Z,14.40
2022-12-31T14:49:31.194Z,15.15
2022-12-31T14:52:09.060Z,20.83
2022-12-31T14:54:36.844Z,22.75
2022-12-31T14:57:12.159Z,19.65
2022-12-31T14:59:40.839Z,20.35
2022-12-31T15:02:27.347Z,20.65
2022-12-31T15:05:10.149Z,28.35
2022-12-31T15:08:07.545Z,37.03
2022-12-31T15:10:37.383Z,34.45
2022-12-31T15:13:20.691Z,33.00
2022-12-31T15:16:12.369Z,35.10
2022-12-31T15:18:54.193Z,37.20
2022-12-31T15:21:32.885Z,40.60
2022-12-31T15:23:59.694Z,37.80
2022-12-31T15:26:34.657Z,47.17
2022-12-31T15:29:02.651Z,40.60
2022-12-31T15:31:29.749Z,41.60
2022-12-31T15:34:01.417Z,57.25
2022-12-31T15:36:32.834Z,57.70
2022-12-31T15:39:10.239Z,50.08
2022-12-31T15:42:10.409Z,55.03
2022-12-31T15:44:50.262Z,53.13
2022-12-31T15:47:25.895Z,90.00
2022-12-31T15:49:52.766Z,45.75
2022-12-31T15:52:30.591Z,56.30
2022-12-31T15:54:57.504Z,45.75
2022-12-31T15:57:31.254Z,57.33
2022-12-31T16:00:05.647Z,56.00
2022-12-31T16:02:32.557Z,60.20
2022-12-31T16:04:59.413Z,70.75
2022-12-31T16:07:27.395Z,79.63
2022-12-31T16:09:55.956Z,82.78
2022-12-31T16:12:29.199Z,71.95
2022-12-31T16:14:59.425Z,120.43
2022-12-31T16:17:36.126Z,103.18
2022-12-31T16:20:25.413Z,105.32
2022-12-31T16:22:56.204Z,70.72
2022-12-31T16:25:31.912Z,70.93
2022-12-31T16:27:59.516Z,70.55
2022-12-31T16:30:33.364Z,63.03
2022-12-31T16:33:02.348Z,67.88
2022-12-31T16:35:33.863Z,69.65
2022-12-31T16:38:19.146Z,66.50
2022-12-31T16:41:04.074Z,76.28
2022-12-31T16:43:38.563Z,79.38
2022-12-31T16:46:15.063Z,69.68
2022-12-31T16:48:55.921Z,58.28
2022-12-31T16:51:24.595Z,63.50
2022-12-31T16:53:51.560Z,44.90
2022-12-31T16:56:26.536Z,59.92
2022-12-31T16:58:57.793Z,47.13
2022-12-31T17:01:25.692Z,29.38
2022-12-31T17:03:59.616Z,35.75
2022-12-31T17:06:28.338Z,48.50
2022-12-31T17:08:55.525Z,42.10
2022-12-31T17:11:35.002Z,57.83
2022-12-31T17:14:07.981Z,62.13
2022-12-31T17:16:35.565Z,102.53
2022-12-31T17:19:02.349Z,100.18
2022-12-31T17:21:30.227Z,65.43
2022-12-31T17:24:02.183Z,54.53
2022-12-31T17:26:30.722Z,54.10
2022-12-31T17:28:58.061Z,57.72
2022-12-31T17:31:40.852Z,127.88
2022-12-31T17:34:13.953Z,54.80
2022-12-31T17:37:00.922Z,53.30
2022-12-31T17:39:39.105Z,41.30
2022-12-31T17:42:07.610Z,36.53
2022-12-31T17:44:34.429Z,29.13
2022-12-31T17:47:02.792Z,89.03
2022-12-31T17:49:30.996Z,27.50
2022-12-31T17:51:57.884Z,32.00
2022-12-31T17:54:24.829Z,56.60
2022-12-31T17:56:52.205Z,42.90
2022-12-31T17:59:22.985Z,44.13
2022-12-31T18:01:49.992Z,59.33
2022-12-31T18:04:17.890Z,77.07
2022-12-31T18:06:44.839Z,62.60
2022-12-31T18:09:11.915Z,54.60
2022-12-31T18:11:38.900Z,60.95
2022-12-31T18:14:07.072Z,68.80
2022-12-31T18:16:33.988Z,169.98
2022-12-31T18:19:01.087Z,279.95
2022-12-31T18:21:32.485Z,313.52
2022-12-31T18:26:25.347Z,129.80
2022-12-31T18:28:52.289Z,238.88
2022-12-31T18:31:19.695Z,51.47
2022-12-31T18:33:49.456Z,54.22
2022-12-31T18:36:17.073Z,64.22
2022-12-31T18:38:43.954Z,57.70
2022-12-31T18:41:23.179Z,43.20
2022-12-31T18:43:50.172Z,57.25
2022-12-31T18:46:18.983Z,34.10
2022-12-31T18:48:45.919Z,36.63
2022-12-31T18:51:19.865Z,42.50
2022-12-31T18:53:46.716Z,47.47
2022-12-31T18:56:15.044Z,44.28
2022-12-31T18:58:42.028Z,51.72
2022-12-31T19:01:32.442Z,51.67
2022-12-31T19:04:27.688Z,41.38
2022-12-31T19:06:55.150Z,26.48
2022-12-31T19:12:13.680Z,19.30
2022-12-31T19:14:40.498Z,30.98
2022-12-31T19:19:32.943Z,28.83
2022-12-31T19:21:59.685Z,17.08
2022-12-31T19:24:27.055Z,18.65
2022-12-31T19:26:54.194Z,22.13
2022-12-31T19:29:21.830Z,16.45
2022-12-31T19:31:48.727Z,18.38
2022-12-31T19:34:15.639Z,21.67
2022-12-31T19:36:44.295Z,14.35
2022-12-31T19:39:17.499Z,29.90
2022-12-31T19:41:44.486Z,38.53
2022-12-31T19:44:18.009Z,33.85
2022-12-31T19:46:45.127Z,164.93
2022-12-31T19:49:12.622Z,61.10
2022-12-31T19:51:39.595Z,52.88
2022-12-31T19:54:06.550Z,94.50
2022-12-31T19:56:33.343Z,79.25
2022-12-31T19:59:09.701Z,79.00
2022-12-31T20:01:36.649Z,55.00
2022-12-31T20:04:03.751Z,57.65
2022-12-31T20:06:30.601Z,95.10
2022-12-31T20:08:57.445Z,73.18
2022-12-31T20:11:24.458Z,64.68
2022-12-31T20:13:52.598Z,66.72
2022-12-31T20:16:21.002Z,68.85
2022-12-31T20:18:47.952Z,65.80
2022-12-31T20:21:17.850Z,91.72
2022-12-31T20:23:44.851Z,270.67
2022-12-31T20:26:11.789Z,120.50
2022-12-31T20:28:38.546Z,107.63
2022-12-31T20:31:15.848Z,110.75
2022-12-31T20:33:42.700Z,105.95
2022-12-31T20:36:11.133Z,101.55
2022-12-31T20:38:37.916Z,95.88
2022-12-31T20:41:18.819Z,93.20
2022-12-31T20:43:45.845Z,96.30
2022-12-31T20:46:21.180Z,111.75
2022-12-31T20:48:48.534Z,118.43
2022-12-31T20:51:15.478Z,121.78
2022-12-31T20:53:49.198Z,123.93
2022-12-31T20:56:16.317Z,122.75
2022-12-31T20:58:43.216Z,142.35
2022-12-31T21:01:10.373Z,136.43
2022-12-31T21:04:04.457Z,144.68
2022-12-31T21:06:25.107Z,147.23
2022-12-31T21:08:51.963Z,131.10
2022-12-31T21:11:37.154Z,124.13
2022-12-31T21:14:03.953Z,145.55
2022-12-31T21:16:30.705Z,137.65
2022-12-31T21:18:57.595Z,138.77
2022-12-31T21:21:24.398Z,134.15
2022-12-31T21:23:51.216Z,139.88
2022-12-31T21:26:18.033Z,135.00
2022-12-31T21:28:44.934Z,142.35
2022-12-31T21:31:13.226Z,129.50
2022-12-31T21:33:40.084Z,125.78
2022-12-31T21:36:07.112Z,108.25
2022-12-31T21:38:36.229Z,100.15
2022-12-31T21:41:04.118Z,92.47
2022-12-31T21:43:31.001Z,94.25
2022-12-31T21:46:05.020Z,98.15
2022-12-31T21:48:32.213Z,79.53
2022-12-31T21:51:09.845Z,79.57
2022-12-31T21:53:37.482Z,73.65
2022-12-31T21:56:16.092Z,70.65
2022-12-31T21:58:44.783Z,56.00
2022-12-31T22:01:40.144Z,53.50
2022-12-31T22:04:22.149Z,47.55
2022-12-31T22:06:54.899Z,38.70
2022-12-31T22:09:21.677Z,47.25
2022-12-31T22:11:48.493Z,46.17
2022-12-31T22:14:15.328Z,49.97
2022-12-31T22:16:42.228Z,52.13
2022-12-31T22:19:09.080Z,58.40
2022-12-31T22:21:35.860Z,54.80
2022-12-31T22:24:03.137Z,59.45
2022-12-31T22:26:29.935Z,53.53
2022-12-31T22:28:59.292Z,39.67
2022-12-31T22:31:28.800Z,46.33
2022-12-31T22:33:55.786Z,44.50
2022-12-31T22:36:23.149Z,41.05
2022-12-31T22:38:50.944Z,47.13
2022-12-31T22:41:21.573Z,45.05
2022-12-31T22:43:49.793Z,41.78
2022-12-31T22:46:27.358Z,41.10
2022-12-31T22:48:56.485Z,46.28
2022-12-31T22:51:23.276Z,46.88
2022-12-31T22:53:50.116Z,50.17
2022-12-31T22:56:17.729Z,43.85
2022-12-31T22:58:44.705Z,41.63
2022-12-31T23:01:19.662Z,48.70
2022-12-31T23:03:47.116Z,43.80
2022-12-31T23:06:14.257Z,45.47
2022-12-31T23:08:41.240Z,53.40
2022-12-31T23:11:09.478Z,46.25
2022-12-31T23:13:58.627Z,47.38
2022-12-31T23:16:45.150Z,56.40
2022-12-31T23:19:31.017Z,52.53
2022-12-31T23:22:16.525Z,86.95
2022-12-31T23:24:43.349Z,141.95
2022-12-31T23:27:10.280Z,124.53
2022-12-31T23:29:45.543Z,137.43
2022-12-31T23:32:14.672Z,137.48
2022-12-31T23:34:42.296Z,150.02
2022-12-31T23:37:09.086Z,150.95
2022-12-31T23:39:35.911Z,156.75
2022-12-31T23:42:02.715Z,144.50
2022-12-31T23:44:29.632Z,186.32
2022-12-31T23:46:56.588Z,207.88
2022-12-31T23:49:23.584Z,224.55
2022-12-31T23:51:50.378Z,206.20
2022-12-31T23:54:17.845Z,221.27
2022-12-31T23:56:44.635Z,198.52
2022-12-31T23:59:11.751Z,198.05
